sensor_id;sensor_type;location;lat;lon;timestamp;P1;durP1;ratioP1;P2;durP2;ratioP2
6432;SDS011;3249;42.690;23.260;2023-11-22T00:00:31;29.03;;;21.50;;
6432;SDS011;3249;42.690;23.260;2023-11-22T00:06:43;36.30;;;24.77;;
6432;SDS011;3249;42.690;23.260;2023-11-22T00:09:13;32.30;;;23.37;;
6432;SDS011;3249;42.690;23.260;2023-11-22T00:11:47;36.40;;;24.97;;
6432;SDS011;3249;42.690;23.260;2023-11-22T00:14:16;33.37;;;23.83;;
6432;SDS011;3249;42.690;23.260;2023-11-22T00:16:46;34.30;;;23.23;;
6432;SDS011;3249;42.690;23.260;2023-11-22T00:19:16;32.30;;;23.40;;
6432;SDS011;3249;42.690;23.260;2023-11-22T00:21:50;32.63;;;24.10;;
6432;SDS011;3249;42.690;23.260;2023-11-22T00:24:19;32.53;;;24.60;;
6432;SDS011;3249;42.690;23.260;2023-11-22T00:26:48;34.90;;;23.73;;
6432;SDS011;3249;42.690;23.260;2023-11-22T00:29:17;32.03;;;23.40;;
6432;SDS011;3249;42.690;23.260;2023-11-22T00:31:47;28.77;;;21.97;;
6432;SDS011;3249;42.690;23.260;2023-11-22T00:34:16;29.60;;;21.93;;
6432;SDS011;3249;42.690;23.260;2023-11-22T00:36:45;28.87;;;19.97;;
6432;SDS011;3249;42.690;23.260;2023-11-22T00:39:17;24.47;;;18.93;;
6432;SDS011;3249;42.690;23.260;2023-11-22T00:41:48;22.40;;;18.03;;
6432;SDS011;3249;42.690;23.260;2023-11-22T00:44:17;28.03;;;19.00;;
6432;SDS011;3249;42.690;23.260;2023-11-22T00:46:46;25.03;;;19.17;;
6432;SDS011;3249;42.690;23.260;2023-11-22T00:49:15;22.00;;;18.03;;
6432;SDS011;3249;42.690;23.260;2023-11-22T00:51:44;26.43;;;18.20;;
6432;SDS011;3249;42.690;23.260;2023-11-22T00:54:14;24.10;;;18.50;;
6432;SDS011;3249;42.690;23.260;2023-11-22T00:56:46;23.03;;;18.20;;
6432;SDS011;3249;42.690;23.260;2023-11-22T00:59:15;22.73;;;17.03;;
6432;SDS011;3249;42.690;23.260;2023-11-22T01:01:45;25.67;;;17.97;;
6432;SDS011;3249;42.690;23.260;2023-11-22T01:04:14;22.73;;;17.70;;
6432;SDS011;3249;42.690;23.260;2023-11-22T01:06:43;24.63;;;17.20;;
6432;SDS011;3249;42.690;23.260;2023-11-22T01:09:13;22.40;;;17.50;;
6432;SDS011;3249;42.690;23.260;2023-11-22T01:11:46;24.63;;;18.33;;
6432;SDS011;3249;42.690;23.260;2023-11-22T01:14:15;23.00;;;17.83;;
6432;SDS011;3249;42.690;23.260;2023-11-22T01:16:44;21.37;;;17.87;;
6432;SDS011;3249;42.690;23.260;2023-11-22T01:19:15;23.30;;;18.20;;
6432;SDS011;3249;42.690;23.260;2023-11-22T01:21:44;22.47;;;17.97;;
6432;SDS011;3249;42.690;23.260;2023-11-22T01:24:14;24.87;;;17.37;;
6432;SDS011;3249;42.690;23.260;2023-11-22T01:26:46;25.40;;;18.80;;
6432;SDS011;3249;42.690;23.260;2023-11-22T01:29:15;22.40;;;17.60;;
6432;SDS011;3249;42.690;23.260;2023-11-22T01:31:47;24.63;;;18.13;;
6432;SDS011;3249;42.690;23.260;2023-11-22T01:34:16;24.40;;;18.37;;
6432;SDS011;3249;42.690;23.260;2023-11-22T01:36:45;21.20;;;18.70;;
6432;SDS011;3249;42.690;23.260;2023-11-22T01:39:17;23.47;;;18.00;;
6432;SDS011;3249;42.690;23.260;2023-11-22T01:41:49;26.53;;;17.73;;
6432;SDS011;3249;42.690;23.260;2023-11-22T01:44:20;25.23;;;19.10;;
6432;SDS011;3249;42.690;23.260;2023-11-22T01:46:49;21.23;;;17.77;;
6432;SDS011;3249;42.690;23.260;2023-11-22T01:49:19;20.93;;;16.97;;
6432;SDS011;3249;42.690;23.260;2023-11-22T01:51:49;21.80;;;17.03;;
6432;SDS011;3249;42.690;23.260;2023-11-22T01:54:18;24.23;;;17.60;;
6432;SDS011;3249;42.690;23.260;2023-11-22T01:56:52;23.40;;;17.60;;
6432;SDS011;3249;42.690;23.260;2023-11-22T01:59:22;22.07;;;16.90;;
6432;SDS011;3249;42.690;23.260;2023-11-22T02:01:53;21.83;;;17.67;;
6432;SDS011;3249;42.690;23.260;2023-11-22T02:04:22;21.80;;;17.00;;
6432;SDS011;3249;42.690;23.260;2023-11-22T02:06:52;20.93;;;16.83;;
6432;SDS011;3249;42.690;23.260;2023-11-22T02:09:21;24.30;;;19.40;;
6432;SDS011;3249;42.690;23.260;2023-11-22T02:11:53;23.10;;;17.67;;
6432;SDS011;3249;42.690;23.260;2023-11-22T02:14:23;20.97;;;16.30;;
6432;SDS011;3249;42.690;23.260;2023-11-22T02:16:52;27.30;;;18.10;;
6432;SDS011;3249;42.690;23.260;2023-11-22T02:19:21;23.17;;;16.70;;
6432;SDS011;3249;42.690;23.260;2023-11-22T02:21:50;19.70;;;15.37;;
6432;SDS011;3249;42.690;23.260;2023-11-22T02:24:22;21.30;;;15.70;;
6432;SDS011;3249;42.690;23.260;2023-11-22T02:26:52;21.30;;;16.63;;
6432;SDS011;3249;42.690;23.260;2023-11-22T02:29:21;24.27;;;17.57;;
6432;SDS011;3249;42.690;23.260;2023-11-22T02:31:50;22.30;;;17.13;;
6432;SDS011;3249;42.690;23.260;2023-11-22T02:34:19;25.50;;;18.67;;
6432;SDS011;3249;42.690;23.260;2023-11-22T02:36:49;21.50;;;17.40;;
6432;SDS011;3249;42.690;23.260;2023-11-22T02:39:19;22.50;;;17.33;;
6432;SDS011;3249;42.690;23.260;2023-11-22T02:41:54;26.23;;;18.90;;
6432;SDS011;3249;42.690;23.260;2023-11-22T02:44:24;23.77;;;17.73;;
6432;SDS011;3249;42.690;23.260;2023-11-22T02:46:53;21.23;;;18.07;;
6432;SDS011;3249;42.690;23.260;2023-11-22T02:49:23;23.03;;;18.17;;
6432;SDS011;3249;42.690;23.260;2023-11-22T02:51:52;23.80;;;17.70;;
6432;SDS011;3249;42.690;23.260;2023-11-22T02:54:24;20.93;;;16.30;;
6432;SDS011;3249;42.690;23.260;2023-11-22T02:56:54;23.87;;;18.27;;
6432;SDS011;3249;42.690;23.260;2023-11-22T02:59:23;24.03;;;18.80;;
6432;SDS011;3249;42.690;23.260;2023-11-22T03:01:52;29.93;;;19.43;;
6432;SDS011;3249;42.690;23.260;2023-11-22T03:04:22;26.07;;;20.13;;
6432;SDS011;3249;42.690;23.260;2023-11-22T03:06:51;23.30;;;18.87;;
6432;SDS011;3249;42.690;23.260;2023-11-22T03:09:20;24.00;;;19.03;;
6432;SDS011;3249;42.690;23.260;2023-11-22T03:11:52;24.57;;;19.53;;
6432;SDS011;3249;42.690;23.260;2023-11-22T03:14:21;25.97;;;20.13;;
6432;SDS011;3249;42.690;23.260;2023-11-22T03:16:50;29.97;;;21.67;;
6432;SDS011;3249;42.690;23.260;2023-11-22T03:19:21;30.33;;;20.90;;
6432;SDS011;3249;42.690;23.260;2023-11-22T03:21:50;30.53;;;21.13;;
6432;SDS011;3249;42.690;23.260;2023-11-22T03:24:19;25.63;;;20.13;;
6432;SDS011;3249;42.690;23.260;2023-11-22T03:26:51;27.60;;;19.87;;
6432;SDS011;3249;42.690;23.260;2023-11-22T03:29:22;27.00;;;19.90;;
6432;SDS011;3249;42.690;23.260;2023-11-22T03:31:51;34.10;;;22.67;;
6432;SDS011;3249;42.690;23.260;2023-11-22T03:34:20;29.80;;;21.20;;
6432;SDS011;3249;42.690;23.260;2023-11-22T03:36:50;27.23;;;20.10;;
6432;SDS011;3249;42.690;23.260;2023-11-22T03:39:19;39.97;;;28.83;;
6432;SDS011;3249;42.690;23.260;2023-11-22T03:41:48;42.03;;;26.97;;
6432;SDS011;3249;42.690;23.260;2023-11-22T03:44:20;44.30;;;28.50;;
6432;SDS011;3249;42.690;23.260;2023-11-22T03:46:49;32.60;;;24.43;;
6432;SDS011;3249;42.690;23.260;2023-11-22T03:49:18;38.23;;;24.10;;
6432;SDS011;3249;42.690;23.260;2023-11-22T03:51:47;39.97;;;24.20;;
6432;SDS011;3249;42.690;23.260;2023-11-22T03:54:16;32.10;;;24.33;;
6432;SDS011;3249;42.690;23.260;2023-11-22T03:56:45;37.97;;;22.97;;
6432;SDS011;3249;42.690;23.260;2023-11-22T03:59:17;41.13;;;23.53;;
6432;SDS011;3249;42.690;23.260;2023-11-22T04:01:46;36.00;;;23.80;;
6432;SDS011;3249;42.690;23.260;2023-11-22T04:04:16;32.93;;;23.43;;
6432;SDS011;3249;42.690;23.260;2023-11-22T04:06:45;37.07;;;23.13;;
6432;SDS011;3249;42.690;23.260;2023-11-22T04:09:16;38.30;;;21.70;;
6432;SDS011;3249;42.690;23.260;2023-11-22T04:11:45;29.77;;;19.60;;
6432;SDS011;3249;42.690;23.260;2023-11-22T04:14:18;27.20;;;19.40;;
6432;SDS011;3249;42.690;23.260;2023-11-22T04:16:48;30.00;;;19.50;;
6432;SDS011;3249;42.690;23.260;2023-11-22T04:19:18;29.77;;;20.83;;
6432;SDS011;3249;42.690;23.260;2023-11-22T04:21:47;34.30;;;19.50;;
6432;SDS011;3249;42.690;23.260;2023-11-22T04:24:16;28.60;;;17.77;;
6432;SDS011;3249;42.690;23.260;2023-11-22T04:26:45;23.00;;;17.57;;
6432;SDS011;3249;42.690;23.260;2023-11-22T04:29:14;21.87;;;17.23;;
6432;SDS011;3249;42.690;23.260;2023-11-22T04:31:46;28.07;;;18.90;;
6432;SDS011;3249;42.690;23.260;2023-11-22T04:34:16;27.20;;;18.13;;
6432;SDS011;3249;42.690;23.260;2023-11-22T04:36:45;21.00;;;17.43;;
6432;SDS011;3249;42.690;23.260;2023-11-22T04:39:15;22.00;;;16.70;;
6432;SDS011;3249;42.690;23.260;2023-11-22T04:41:44;21.43;;;17.37;;
6432;SDS011;3249;42.690;23.260;2023-11-22T04:44:13;23.47;;;17.33;;
6432;SDS011;3249;42.690;23.260;2023-11-22T04:46:43;24.73;;;18.53;;
6432;SDS011;3249;42.690;23.260;2023-11-22T04:49:14;22.40;;;17.07;;
6432;SDS011;3249;42.690;23.260;2023-11-22T04:51:43;22.07;;;18.27;;
6432;SDS011;3249;42.690;23.260;2023-11-22T04:54:12;23.27;;;17.40;;
6432;SDS011;3249;42.690;23.260;2023-11-22T04:56:41;23.80;;;17.57;;
6432;SDS011;3249;42.690;23.260;2023-11-22T04:59:10;20.60;;;16.27;;
6432;SDS011;3249;42.690;23.260;2023-11-22T05:01:41;52.20;;;27.60;;
6432;SDS011;3249;42.690;23.260;2023-11-22T05:04:10;47.37;;;26.83;;
6432;SDS011;3249;42.690;23.260;2023-11-22T05:06:42;44.67;;;27.50;;
6432;SDS011;3249;42.690;23.260;2023-11-22T05:09:11;50.20;;;27.20;;
6432;SDS011;3249;42.690;23.260;2023-11-22T05:11:43;43.40;;;29.07;;
6432;SDS011;3249;42.690;23.260;2023-11-22T05:14:13;52.03;;;30.10;;
6432;SDS011;3249;42.690;23.260;2023-11-22T05:16:42;31.77;;;20.80;;
6432;SDS011;3249;42.690;23.260;2023-11-22T05:19:11;32.83;;;20.83;;
6432;SDS011;3249;42.690;23.260;2023-11-22T05:21:42;41.27;;;22.77;;
6432;SDS011;3249;42.690;23.260;2023-11-22T05:24:12;32.00;;;22.27;;
6432;SDS011;3249;42.690;23.260;2023-11-22T05:26:41;35.00;;;23.40;;
6432;SDS011;3249;42.690;23.260;2023-11-22T05:29:10;39.73;;;23.47;;
6432;SDS011;3249;42.690;23.260;2023-11-22T05:31:39;33.27;;;24.87;;
6432;SDS011;3249;42.690;23.260;2023-11-22T05:34:08;48.37;;;27.67;;
6432;SDS011;3249;42.690;23.260;2023-11-22T05:36:37;36.50;;;27.63;;
6432;SDS011;3249;42.690;23.260;2023-11-22T05:39:09;42.47;;;29.70;;
6432;SDS011;3249;42.690;23.260;2023-11-22T05:41:39;41.33;;;31.37;;
6432;SDS011;3249;42.690;23.260;2023-11-22T05:44:08;37.97;;;27.50;;
6432;SDS011;3249;42.690;23.260;2023-11-22T05:46:37;57.67;;;35.70;;
6432;SDS011;3249;42.690;23.260;2023-11-22T05:49:06;56.17;;;35.30;;
6432;SDS011;3249;42.690;23.260;2023-11-22T05:51:36;41.03;;;29.70;;
6432;SDS011;3249;42.690;23.260;2023-11-22T05:54:06;30.57;;;24.53;;
6432;SDS011;3249;42.690;23.260;2023-11-22T05:56:40;47.17;;;31.17;;
6432;SDS011;3249;42.690;23.260;2023-11-22T05:59:10;43.00;;;28.50;;
6432;SDS011;3249;42.690;23.260;2023-11-22T06:01:38;31.97;;;23.53;;
6432;SDS011;3249;42.690;23.260;2023-11-22T06:04:08;40.87;;;30.73;;
6432;SDS011;3249;42.690;23.260;2023-11-22T06:06:37;41.20;;;31.57;;
6432;SDS011;3249;42.690;23.260;2023-11-22T06:09:06;39.20;;;27.37;;
6432;SDS011;3249;42.690;23.260;2023-11-22T06:11:40;43.73;;;31.20;;
6432;SDS011;3249;42.690;23.260;2023-11-22T06:14:10;50.70;;;35.30;;
6432;SDS011;3249;42.690;23.260;2023-11-22T06:16:39;42.50;;;30.10;;
6432;SDS011;3249;42.690;23.260;2023-11-22T06:19:08;55.37;;;33.93;;
6432;SDS011;3249;42.690;23.260;2023-11-22T06:21:37;44.43;;;33.87;;
6432;SDS011;3249;42.690;23.260;2023-11-22T06:24:06;46.23;;;32.97;;
6432;SDS011;3249;42.690;23.260;2023-11-22T06:26:44;55.60;;;39.70;;
6432;SDS011;3249;42.690;23.260;2023-11-22T06:29:15;52.10;;;38.80;;
6432;SDS011;3249;42.690;23.260;2023-11-22T06:31:45;49.30;;;38.03;;
6432;SDS011;3249;42.690;23.260;2023-11-22T06:34:14;47.43;;;36.83;;
6432;SDS011;3249;42.690;23.260;2023-11-22T06:36:44;47.87;;;37.30;;
6432;SDS011;3249;42.690;23.260;2023-11-22T06:39:13;48.60;;;33.80;;
6432;SDS011;3249;42.690;23.260;2023-11-22T06:41:45;47.73;;;35.40;;
6432;SDS011;3249;42.690;23.260;2023-11-22T06:44:14;36.67;;;25.60;;
6432;SDS011;3249;42.690;23.260;2023-11-22T06:46:44;47.47;;;30.57;;
6432;SDS011;3249;42.690;23.260;2023-11-22T06:49:13;49.87;;;33.17;;
6432;SDS011;3249;42.690;23.260;2023-11-22T06:51:42;57.07;;;36.30;;
6432;SDS011;3249;42.690;23.260;2023-11-22T06:54:12;51.17;;;34.23;;
6432;SDS011;3249;42.690;23.260;2023-11-22T06:56:41;53.03;;;38.13;;
6432;SDS011;3249;42.690;23.260;2023-11-22T06:59:14;52.03;;;37.07;;
6432;SDS011;3249;42.690;23.260;2023-11-22T07:01:43;50.23;;;34.80;;
6432;SDS011;3249;42.690;23.260;2023-11-22T07:04:12;53.87;;;35.80;;
6432;SDS011;3249;42.690;23.260;2023-11-22T07:06:41;46.43;;;30.23;;
6432;SDS011;3249;42.690;23.260;2023-11-22T07:09:11;45.70;;;32.27;;
6432;SDS011;3249;42.690;23.260;2023-11-22T07:11:40;48.60;;;33.00;;
6432;SDS011;3249;42.690;23.260;2023-11-22T07:14:10;48.97;;;34.63;;
6432;SDS011;3249;42.690;23.260;2023-11-22T07:16:42;49.00;;;32.33;;
6432;SDS011;3249;42.690;23.260;2023-11-22T07:19:11;51.73;;;36.53;;
6432;SDS011;3249;42.690;23.260;2023-11-22T07:21:41;57.50;;;39.50;;
6432;SDS011;3249;42.690;23.260;2023-11-22T07:24:10;55.33;;;38.23;;
6432;SDS011;3249;42.690;23.260;2023-11-22T07:26:41;58.57;;;38.63;;
6432;SDS011;3249;42.690;23.260;2023-11-22T07:29:10;52.80;;;37.03;;
6432;SDS011;3249;42.690;23.260;2023-11-22T07:31:42;54.40;;;36.23;;
6432;SDS011;3249;42.690;23.260;2023-11-22T07:34:11;51.73;;;35.80;;
6432;SDS011;3249;42.690;23.260;2023-11-22T07:36:41;47.40;;;34.20;;
6432;SDS011;3249;42.690;23.260;2023-11-22T07:39:10;57.63;;;40.80;;
6432;SDS011;3249;42.690;23.260;2023-11-22T07:41:39;62.20;;;43.00;;
6432;SDS011;3249;42.690;23.260;2023-11-22T07:44:08;51.37;;;34.77;;
6432;SDS011;3249;42.690;23.260;2023-11-22T07:46:39;48.73;;;35.67;;
6432;SDS011;3249;42.690;23.260;2023-11-22T07:49:13;48.80;;;34.93;;
6432;SDS011;3249;42.690;23.260;2023-11-22T07:51:44;46.30;;;32.27;;
6432;SDS011;3249;42.690;23.260;2023-11-22T07:54:15;51.40;;;30.97;;
6432;SDS011;3249;42.690;23.260;2023-11-22T07:56:44;39.27;;;27.80;;
6432;SDS011;3249;42.690;23.260;2023-11-22T07:59:13;41.77;;;30.67;;
6432;SDS011;3249;42.690;23.260;2023-11-22T08:01:45;35.60;;;28.20;;
6432;SDS011;3249;42.690;23.260;2023-11-22T08:04:15;33.97;;;25.00;;
6432;SDS011;3249;42.690;23.260;2023-11-22T08:06:45;32.40;;;22.17;;
6432;SDS011;3249;42.690;23.260;2023-11-22T08:09:14;31.93;;;21.43;;
6432;SDS011;3249;42.690;23.260;2023-11-22T08:11:44;29.80;;;22.27;;
6432;SDS011;3249;42.690;23.260;2023-11-22T08:14:14;30.10;;;19.03;;
6432;SDS011;3249;42.690;23.260;2023-11-22T08:16:46;28.63;;;22.00;;
6432;SDS011;3249;42.690;23.260;2023-11-22T08:19:15;20.67;;;17.97;;
6432;SDS011;3249;42.690;23.260;2023-11-22T08:21:44;22.63;;;19.13;;
6432;SDS011;3249;42.690;23.260;2023-11-22T08:24:13;24.97;;;19.73;;
6432;SDS011;3249;42.690;23.260;2023-11-22T08:26:44;21.77;;;18.23;;
6432;SDS011;3249;42.690;23.260;2023-11-22T08:29:13;20.47;;;14.63;;
6432;SDS011;3249;42.690;23.260;2023-11-22T08:31:42;25.87;;;18.73;;
6432;SDS011;3249;42.690;23.260;2023-11-22T08:34:16;28.43;;;20.07;;
6432;SDS011;3249;42.690;23.260;2023-11-22T08:36:45;28.10;;;20.40;;
6432;SDS011;3249;42.690;23.260;2023-11-22T08:39:14;30.97;;;22.33;;
6432;SDS011;3249;42.690;23.260;2023-11-22T08:41:43;35.50;;;27.90;;
6432;SDS011;3249;42.690;23.260;2023-11-22T08:44:15;27.57;;;21.00;;
6432;SDS011;3249;42.690;23.260;2023-11-22T08:46:47;32.37;;;25.43;;
6432;SDS011;3249;42.690;23.260;2023-11-22T08:49:16;36.57;;;28.00;;
6432;SDS011;3249;42.690;23.260;2023-11-22T08:51:52;39.07;;;28.60;;
6432;SDS011;3249;42.690;23.260;2023-11-22T08:54:21;42.07;;;36.20;;
6432;SDS011;3249;42.690;23.260;2023-11-22T08:56:54;79.73;;;67.93;;
6432;SDS011;3249;42.690;23.260;2023-11-22T08:59:26;48.93;;;39.87;;
6432;SDS011;3249;42.690;23.260;2023-11-22T09:01:57;50.13;;;37.63;;
6432;SDS011;3249;42.690;23.260;2023-11-22T09:04:27;52.33;;;33.67;;
6432;SDS011;3249;42.690;23.260;2023-11-22T09:06:57;29.37;;;22.17;;
6432;SDS011;3249;42.690;23.260;2023-11-22T09:09:26;33.87;;;23.83;;
6432;SDS011;3249;42.690;23.260;2023-11-22T09:11:56;22.67;;;16.47;;
6432;SDS011;3249;42.690;23.260;2023-11-22T09:14:25;20.83;;;16.73;;
6432;SDS011;3249;42.690;23.260;2023-11-22T09:16:57;25.40;;;17.23;;
6432;SDS011;3249;42.690;23.260;2023-11-22T09:19:30;19.20;;;17.13;;
6432;SDS011;3249;42.690;23.260;2023-11-22T09:22:01;23.33;;;19.23;;
6432;SDS011;3249;42.690;23.260;2023-11-22T09:24:31;26.33;;;19.77;;
6432;SDS011;3249;42.690;23.260;2023-11-22T09:27:03;30.37;;;22.73;;
6432;SDS011;3249;42.690;23.260;2023-11-22T09:29:36;30.00;;;22.77;;
6432;SDS011;3249;42.690;23.260;2023-11-22T09:32:08;22.47;;;19.07;;
6432;SDS011;3249;42.690;23.260;2023-11-22T09:34:38;24.87;;;18.57;;
6432;SDS011;3249;42.690;23.260;2023-11-22T09:37:09;21.83;;;17.87;;
6432;SDS011;3249;42.690;23.260;2023-11-22T09:39:40;20.00;;;16.53;;
6432;SDS011;3249;42.690;23.260;2023-11-22T09:42:10;23.47;;;17.30;;
6432;SDS011;3249;42.690;23.260;2023-11-22T09:44:40;23.17;;;17.93;;
6432;SDS011;3249;42.690;23.260;2023-11-22T09:47:12;20.63;;;18.40;;
6432;SDS011;3249;42.690;23.260;2023-11-22T09:49:44;21.53;;;17.63;;
6432;SDS011;3249;42.690;23.260;2023-11-22T09:52:20;23.17;;;17.60;;
6432;SDS011;3249;42.690;23.260;2023-11-22T09:54:55;23.57;;;19.13;;
6432;SDS011;3249;42.690;23.260;2023-11-22T09:57:24;22.27;;;17.70;;
6432;SDS011;3249;42.690;23.260;2023-11-22T09:59:55;20.53;;;16.77;;
6432;SDS011;3249;42.690;23.260;2023-11-22T10:02:37;22.20;;;17.93;;
6432;SDS011;3249;42.690;23.260;2023-11-22T10:05:07;22.07;;;18.60;;
6432;SDS011;3249;42.690;23.260;2023-11-22T10:07:37;22.47;;;18.57;;
6432;SDS011;3249;42.690;23.260;2023-11-22T10:10:06;22.03;;;18.07;;
6432;SDS011;3249;42.690;23.260;2023-11-22T10:12:37;23.20;;;19.07;;
6432;SDS011;3249;42.690;23.260;2023-11-22T10:15:12;25.43;;;22.73;;
6432;SDS011;3249;42.690;23.260;2023-11-22T10:17:54;27.90;;;24.03;;
6432;SDS011;3249;42.690;23.260;2023-11-22T10:20:36;24.50;;;21.23;;
6432;SDS011;3249;42.690;23.260;2023-11-22T10:23:08;38.00;;;34.03;;
6432;SDS011;3249;42.690;23.260;2023-11-22T10:25:43;52.03;;;46.50;;
6432;SDS011;3249;42.690;23.260;2023-11-22T10:28:15;59.97;;;48.23;;
6432;SDS011;3249;42.690;23.260;2023-11-22T10:30:45;75.80;;;63.03;;
6432;SDS011;3249;42.690;23.260;2023-11-22T10:33:19;74.53;;;61.37;;
6432;SDS011;3249;42.690;23.260;2023-11-22T10:35:49;67.67;;;58.03;;
6432;SDS011;3249;42.690;23.260;2023-11-22T10:38:20;78.13;;;69.57;;
6432;SDS011;3249;42.690;23.260;2023-11-22T10:40:49;87.17;;;77.30;;
6432;SDS011;3249;42.690;23.260;2023-11-22T10:43:18;85.47;;;76.23;;
6432;SDS011;3249;42.690;23.260;2023-11-22T10:45:52;90.50;;;77.43;;
6432;SDS011;3249;42.690;23.260;2023-11-22T10:48:26;58.07;;;51.83;;
6432;SDS011;3249;42.690;23.260;2023-11-22T10:50:57;64.03;;;55.13;;
6432;SDS011;3249;42.690;23.260;2023-11-22T10:53:36;51.47;;;44.67;;
6432;SDS011;3249;42.690;23.260;2023-11-22T10:56:07;41.33;;;33.80;;
6432;SDS011;3249;42.690;23.260;2023-11-22T10:58:45;39.63;;;31.93;;
6432;SDS011;3249;42.690;23.260;2023-11-22T11:01:17;42.17;;;30.77;;
6432;SDS011;3249;42.690;23.260;2023-11-22T11:03:51;37.77;;;32.20;;
6432;SDS011;3249;42.690;23.260;2023-11-22T11:06:26;41.10;;;35.20;;
6432;SDS011;3249;42.690;23.260;2023-11-22T11:09:00;44.10;;;32.70;;
6432;SDS011;3249;42.690;23.260;2023-11-22T11:11:32;37.47;;;29.73;;
6432;SDS011;3249;42.690;23.260;2023-11-22T11:14:03;34.63;;;29.27;;
6432;SDS011;3249;42.690;23.260;2023-11-22T11:16:35;39.17;;;30.87;;
6432;SDS011;3249;42.690;23.260;2023-11-22T11:19:13;37.70;;;30.70;;
6432;SDS011;3249;42.690;23.260;2023-11-22T11:21:43;39.97;;;30.63;;
6432;SDS011;3249;42.690;23.260;2023-11-22T11:24:13;40.27;;;31.60;;
6432;SDS011;3249;42.690;23.260;2023-11-22T11:26:46;44.57;;;38.23;;
6432;SDS011;3249;42.690;23.260;2023-11-22T11:29:29;41.97;;;34.60;;
6432;SDS011;3249;42.690;23.260;2023-11-22T11:31:59;54.23;;;42.23;;
6432;SDS011;3249;42.690;23.260;2023-11-22T11:34:34;44.23;;;38.23;;
6432;SDS011;3249;42.690;23.260;2023-11-22T11:37:17;49.17;;;40.83;;
6432;SDS011;3249;42.690;23.260;2023-11-22T11:39:48;68.10;;;52.10;;
6432;SDS011;3249;42.690;23.260;2023-11-22T11:42:17;74.53;;;55.67;;
6432;SDS011;3249;42.690;23.260;2023-11-22T11:47:35;61.73;;;49.77;;
6432;SDS011;3249;42.690;23.260;2023-11-22T11:50:07;62.23;;;51.03;;
6432;SDS011;3249;42.690;23.260;2023-11-22T11:52:38;76.50;;;58.30;;
6432;SDS011;3249;42.690;23.260;2023-11-22T11:55:08;72.57;;;58.53;;
6432;SDS011;3249;42.690;23.260;2023-11-22T11:57:37;80.83;;;63.63;;
6432;SDS011;3249;42.690;23.260;2023-11-22T12:00:08;82.37;;;63.80;;
6432;SDS011;3249;42.690;23.260;2023-11-22T12:02:39;74.60;;;63.63;;
6432;SDS011;3249;42.690;23.260;2023-11-22T12:05:11;83.47;;;65.43;;
6432;SDS011;3249;42.690;23.260;2023-11-22T12:07:40;85.10;;;68.83;;
6432;SDS011;3249;42.690;23.260;2023-11-22T12:10:10;72.60;;;60.50;;
6432;SDS011;3249;42.690;23.260;2023-11-22T12:12:39;49.13;;;43.60;;
6432;SDS011;3249;42.690;23.260;2023-11-22T12:15:09;37.23;;;30.80;;
6432;SDS011;3249;42.690;23.260;2023-11-22T12:17:40;35.10;;;30.83;;
6432;SDS011;3249;42.690;23.260;2023-11-22T12:20:15;33.97;;;26.63;;
6432;SDS011;3249;42.690;23.260;2023-11-22T12:22:46;39.17;;;28.23;;
6432;SDS011;3249;42.690;23.260;2023-11-22T12:25:17;29.90;;;24.10;;
6432;SDS011;3249;42.690;23.260;2023-11-22T12:27:47;36.87;;;26.17;;
6432;SDS011;3249;42.690;23.260;2023-11-22T12:30:29;30.37;;;23.17;;
6432;SDS011;3249;42.690;23.260;2023-11-22T12:33:00;30.53;;;22.30;;
6432;SDS011;3249;42.690;23.260;2023-11-22T12:35:33;28.80;;;24.77;;
6432;SDS011;3249;42.690;23.260;2023-11-22T12:38:04;26.67;;;20.60;;
6432;SDS011;3249;42.690;23.260;2023-11-22T12:40:35;27.23;;;21.60;;
6432;SDS011;3249;42.690;23.260;2023-11-22T12:43:04;23.80;;;18.80;;
6432;SDS011;3249;42.690;23.260;2023-11-22T12:45:34;32.20;;;21.00;;
6432;SDS011;3249;42.690;23.260;2023-11-22T12:48:19;27.97;;;21.43;;
6432;SDS011;3249;42.690;23.260;2023-11-22T12:50:53;28.73;;;21.00;;
6432;SDS011;3249;42.690;23.260;2023-11-22T12:53:22;21.07;;;18.60;;
6432;SDS011;3249;42.690;23.260;2023-11-22T12:55:54;24.10;;;15.93;;
6432;SDS011;3249;42.690;23.260;2023-11-22T12:58:24;18.67;;;16.67;;
6432;SDS011;3249;42.690;23.260;2023-11-22T13:00:54;23.47;;;17.80;;
6432;SDS011;3249;42.690;23.260;2023-11-22T13:03:26;22.07;;;17.90;;
6432;SDS011;3249;42.690;23.260;2023-11-22T13:06:00;23.37;;;18.47;;
6432;SDS011;3249;42.690;23.260;2023-11-22T13:08:29;23.13;;;18.83;;
6432;SDS011;3249;42.690;23.260;2023-11-22T13:11:00;33.93;;;20.67;;
6432;SDS011;3249;42.690;23.260;2023-11-22T13:13:30;33.70;;;22.40;;
6432;SDS011;3249;42.690;23.260;2023-11-22T13:16:01;35.60;;;22.63;;
6432;SDS011;3249;42.690;23.260;2023-11-22T13:18:30;43.80;;;23.37;;
6432;SDS011;3249;42.690;23.260;2023-11-22T13:21:02;44.90;;;26.50;;
6432;SDS011;3249;42.690;23.260;2023-11-22T13:23:32;47.07;;;30.10;;
6432;SDS011;3249;42.690;23.260;2023-11-22T13:26:01;83.57;;;69.43;;
6432;SDS011;3249;42.690;23.260;2023-11-22T13:28:31;101.33;;;76.33;;
6432;SDS011;3249;42.690;23.260;2023-11-22T13:31:00;126.87;;;102.80;;
6432;SDS011;3249;42.690;23.260;2023-11-22T13:33:29;75.10;;;54.07;;
6432;SDS011;3249;42.690;23.260;2023-11-22T13:35:58;48.93;;;35.73;;
6432;SDS011;3249;42.690;23.260;2023-11-22T13:38:30;67.10;;;48.50;;
6432;SDS011;3249;42.690;23.260;2023-11-22T13:40:59;110.27;;;63.70;;
6432;SDS011;3249;42.690;23.260;2023-11-22T13:43:29;78.30;;;54.33;;
6432;SDS011;3249;42.690;23.260;2023-11-22T13:45:59;79.17;;;51.27;;
6432;SDS011;3249;42.690;23.260;2023-11-22T13:48:28;72.37;;;45.63;;
6432;SDS011;3249;42.690;23.260;2023-11-22T13:51:03;52.57;;;32.73;;
6432;SDS011;3249;42.690;23.260;2023-11-22T13:53:33;51.27;;;34.53;;
6432;SDS011;3249;42.690;23.260;2023-11-22T13:56:12;41.93;;;25.43;;
6432;SDS011;3249;42.690;23.260;2023-11-22T13:58:41;43.90;;;31.17;;
6432;SDS011;3249;42.690;23.260;2023-11-22T14:01:10;39.83;;;30.00;;
6432;SDS011;3249;42.690;23.260;2023-11-22T14:03:46;48.60;;;34.23;;
6432;SDS011;3249;42.690;23.260;2023-11-22T14:06:20;50.07;;;35.03;;
6432;SDS011;3249;42.690;23.260;2023-11-22T14:08:49;42.50;;;31.43;;
6432;SDS011;3249;42.690;23.260;2023-11-22T14:11:19;35.83;;;26.63;;
6432;SDS011;3249;42.690;23.260;2023-11-22T14:13:48;39.00;;;25.87;;
6432;SDS011;3249;42.690;23.260;2023-11-22T14:16:17;20.50;;;17.50;;
6432;SDS011;3249;42.690;23.260;2023-11-22T14:18:46;29.90;;;20.17;;
6432;SDS011;3249;42.690;23.260;2023-11-22T14:21:15;31.67;;;23.77;;
6432;SDS011;3249;42.690;23.260;2023-11-22T14:23:47;23.50;;;19.67;;
6432;SDS011;3249;42.690;23.260;2023-11-22T14:26:18;29.73;;;21.53;;
6432;SDS011;3249;42.690;23.260;2023-11-22T14:28:48;30.87;;;21.87;;
6432;SDS011;3249;42.690;23.260;2023-11-22T14:31:17;22.77;;;19.47;;
6432;SDS011;3249;42.690;23.260;2023-11-22T14:33:47;29.00;;;21.03;;
6432;SDS011;3249;42.690;23.260;2023-11-22T14:36:16;29.03;;;22.10;;
6432;SDS011;3249;42.690;23.260;2023-11-22T14:38:48;35.73;;;24.23;;
6432;SDS011;3249;42.690;23.260;2023-11-22T14:41:22;40.77;;;27.10;;
6432;SDS011;3249;42.690;23.260;2023-11-22T14:43:52;38.50;;;29.17;;
6432;SDS011;3249;42.690;23.260;2023-11-22T14:46:21;29.80;;;22.90;;
6432;SDS011;3249;42.690;23.260;2023-11-22T14:48:51;43.50;;;27.77;;
6432;SDS011;3249;42.690;23.260;2023-11-22T14:51:20;33.60;;;22.60;;
6432;SDS011;3249;42.690;23.260;2023-11-22T14:53:52;28.00;;;23.07;;
6432;SDS011;3249;42.690;23.260;2023-11-22T14:56:21;28.40;;;22.43;;
6432;SDS011;3249;42.690;23.260;2023-11-22T14:58:51;35.43;;;26.07;;